createdAt,value
2018-10-15T00:01:40.725Z,95721.89
2018-10-15T00:04:09.469Z,95722.46
2018-10-15T00:06:38.197Z,95711.81
2018-10-15T00:09:08.570Z,95713.80
2018-10-15T00:11:37.286Z,95714.12
2018-10-15T00:14:06.095Z,95711.84
2018-10-15T00:16:34.872Z,95706.91
2018-10-15T00:19:03.652Z,95699.46
2018-10-15T00:21:32.386Z,95710.84
2018-10-15T00:24:01.144Z,95703.64
2018-10-15T00:26:29.863Z,95710.06
2018-10-15T00:28:58.574Z,95704.06
2018-10-15T00:31:27.283Z,95699.34
2018-10-15T00:33:55.992Z,95692.52
2018-10-15T00:36:24.714Z,95703.80
2018-10-15T00:38:53.484Z,95700.51
2018-10-15T00:41:22.224Z,95708.20
2018-10-15T00:43:57.566Z,95701.44
2018-10-15T00:46:26.323Z,95694.63
2018-10-15T00:48:55.051Z,95691.05
2018-10-15T00:51:23.802Z,95686.56
2018-10-15T00:53:52.512Z,95685.35
2018-10-15T00:56:21.251Z,95685.59
2018-10-15T00:58:50.032Z,95686.94
2018-10-15T01:01:18.744Z,95684.25
2018-10-15T01:03:47.610Z,95683.03
2018-10-15T01:06:16.577Z,95679.59
2018-10-15T01:08:45.366Z,95675.08
2018-10-15T01:11:14.133Z,95675.89
2018-10-15T01:13:42.840Z,95674.61
2018-10-15T01:16:11.567Z,95675.98
2018-10-15T01:18:40.280Z,95672.36
2018-10-15T01:21:09.025Z,95672.36
2018-10-15T01:23:37.797Z,95674.20
2018-10-15T01:26:06.947Z,95676.38
2018-10-15T01:28:35.666Z,95683.95
2018-10-15T01:31:04.978Z,95681.99
2018-10-15T01:33:33.785Z,95679.92
2018-10-15T01:36:02.533Z,95681.41
2018-10-15T01:38:31.255Z,95677.39
2018-10-15T01:40:59.990Z,95673.31
2018-10-15T01:43:28.699Z,95673.63
2018-10-15T01:45:57.424Z,95664.94
2018-10-15T01:48:26.118Z,95662.46
2018-10-15T01:50:54.865Z,95667.45
2018-10-15T01:53:23.545Z,95664.04
2018-10-15T01:55:52.251Z,95662.73
2018-10-15T01:58:20.985Z,95663.20
2018-10-15T02:00:49.715Z,95663.55
2018-10-15T02:03:18.461Z,95659.34
2018-10-15T02:05:47.230Z,95662.30
2018-10-15T02:08:15.953Z,95659.02
2018-10-15T02:10:44.675Z,95652.83
2018-10-15T02:13:13.497Z,95659.21
2018-10-15T02:15:42.259Z,95654.52
2018-10-15T02:18:11.023Z,95650.92
2018-10-15T02:20:39.779Z,95649.29
2018-10-15T02:23:08.489Z,95651.47
2018-10-15T02:25:37.258Z,95654.41
2018-10-15T02:28:06.522Z,95649.48
2018-10-15T02:30:35.250Z,95647.03
2018-10-15T02:33:04.400Z,95648.66
2018-10-15T02:35:33.112Z,95652.94
2018-10-15T02:38:01.852Z,95651.69
2018-10-15T02:40:30.625Z,95655.55
2018-10-15T02:42:59.391Z,95659.77
2018-10-15T02:45:28.171Z,95661.98
2018-10-15T02:47:56.934Z,95655.03
2018-10-15T02:50:25.708Z,95656.97
2018-10-15T02:52:54.465Z,95657.41
2018-10-15T02:55:23.219Z,95655.61
2018-10-15T02:57:51.958Z,95657.95
2018-10-15T03:00:20.659Z,95655.36
2018-10-15T03:02:49.381Z,95648.47
2018-10-15T03:05:18.161Z,95648.86
2018-10-15T03:07:46.940Z,95651.11
2018-10-15T03:10:15.663Z,95650.12
2018-10-15T03:12:44.412Z,95655.03
2018-10-15T03:15:13.130Z,95650.27
2018-10-15T03:17:41.866Z,95651.23
2018-10-15T03:20:12.014Z,95651.08
2018-10-15T03:22:41.631Z,95653.36
2018-10-15T03:25:11.030Z,95654.27
2018-10-15T03:27:40.220Z,95653.23
2018-10-15T03:30:10.350Z,95657.16
2018-10-15T03:32:39.530Z,95658.33
2018-10-15T03:35:09.771Z,95654.45
2018-10-15T03:37:38.548Z,95650.02
2018-10-15T03:40:07.818Z,95651.67
2018-10-15T03:42:36.545Z,95648.86
2018-10-15T03:45:06.771Z,95650.73
2018-10-15T03:47:35.482Z,95650.21
2018-10-15T03:50:04.299Z,95647.31
2018-10-15T03:52:33.042Z,95650.97
2018-10-15T03:55:01.755Z,95647.84
2018-10-15T03:57:30.533Z,95647.69
2018-10-15T03:59:59.216Z,95640.87
2018-10-15T04:02:28.025Z,95644.53
2018-10-15T04:04:56.955Z,95640.47
2018-10-15T04:07:25.894Z,95643.61
2018-10-15T04:09:54.682Z,95646.23
2018-10-15T04:12:23.560Z,95640.17
2018-10-15T04:14:52.351Z,95642.59
2018-10-15T04:17:21.130Z,95640.69
2018-10-15T04:19:49.872Z,95637.46
2018-10-15T04:22:18.988Z,95645.98
2018-10-15T04:24:47.740Z,95644.39
2018-10-15T04:27:16.554Z,95642.77
2018-10-15T04:29:45.287Z,95645.72
2018-10-15T04:32:14.012Z,95645.17
2018-10-15T04:34:42.724Z,95648.93
2018-10-15T04:37:11.500Z,95644.66
2018-10-15T04:39:40.271Z,95643.86
2018-10-15T04:42:09.106Z,95644.67
2018-10-15T04:44:37.881Z,95647.95
2018-10-15T04:47:06.702Z,95639.92
2018-10-15T04:49:35.746Z,95637.80
2018-10-15T04:52:04.433Z,95647.45
2018-10-15T04:54:33.191Z,95645.00
2018-10-15T04:57:01.933Z,95640.42
2018-10-15T04:59:30.655Z,95646.58
2018-10-15T05:01:59.405Z,95643.09
2018-10-15T05:04:28.131Z,95649.47
2018-10-15T05:06:56.840Z,95649.47
2018-10-15T05:09:25.845Z,95651.25
2018-10-15T05:11:54.781Z,95656.83
2018-10-15T05:14:23.524Z,95658.28
2018-10-15T05:16:52.277Z,95654.37
2018-10-15T05:19:24.070Z,95657.31
2018-10-15T05:21:52.877Z,95654.80
2018-10-15T05:24:22.195Z,95654.45
2018-10-15T05:26:51.082Z,95650.80
2018-10-15T05:29:19.796Z,95652.78
2018-10-15T05:31:48.495Z,95658.78
2018-10-15T05:34:17.215Z,95657.41
2018-10-15T05:36:46.019Z,95660.52
2018-10-15T05:39:14.858Z,95658.80
2018-10-15T05:41:43.641Z,95660.60
2018-10-15T05:44:12.423Z,95660.20
2018-10-15T05:46:41.300Z,95658.20
2018-10-15T05:49:10.345Z,95659.09
2018-10-15T05:51:39.140Z,95662.30
2018-10-15T05:54:07.928Z,95666.80
2018-10-15T05:56:36.835Z,95666.63
2018-10-15T05:59:06.210Z,95664.75
2018-10-15T06:01:34.968Z,95665.86
2018-10-15T06:04:03.829Z,95667.75
2018-10-15T06:06:32.603Z,95664.90
2018-10-15T06:09:01.356Z,95668.48
2018-10-15T06:11:30.166Z,95668.85
2018-10-15T06:13:59.107Z,95672.23
2018-10-15T06:16:27.970Z,95665.25
2018-10-15T06:18:56.725Z,95665.47
2018-10-15T06:21:25.470Z,95670.53
2018-10-15T06:23:55.032Z,95671.38
2018-10-15T06:26:23.964Z,95675.24
2018-10-15T06:28:53.384Z,95675.38
2018-10-15T06:31:22.261Z,95678.27
2018-10-15T06:33:51.125Z,95679.39
2018-10-15T06:36:20.142Z,95672.83
2018-10-15T06:38:49.037Z,95673.84
2018-10-15T06:41:17.848Z,95668.45
2018-10-15T06:43:46.853Z,95668.89
2018-10-15T06:46:15.829Z,95672.52
2018-10-15T06:48:44.746Z,95674.52
2018-10-15T06:51:13.508Z,95678.51
2018-10-15T06:53:42.444Z,95673.56
2018-10-15T06:56:11.331Z,95677.32
2018-10-15T06:58:40.146Z,95675.64
2018-10-15T07:01:08.999Z,95676.62
2018-10-15T07:03:37.983Z,95669.58
2018-10-15T07:06:07.358Z,95676.39
2018-10-15T07:08:36.143Z,95676.45
2018-10-15T07:11:05.031Z,95673.08
2018-10-15T07:13:33.891Z,95668.19
2018-10-15T07:16:02.702Z,95669.56
2018-10-15T07:18:31.610Z,95671.69
2018-10-15T07:21:00.466Z,95672.60
2018-10-15T07:23:29.232Z,95672.88
2018-10-15T07:25:58.067Z,95675.00
2018-10-15T07:28:29.055Z,95668.35
2018-10-15T07:30:58.075Z,95666.27
2018-10-15T07:33:26.967Z,95660.92
2018-10-15T07:35:56.213Z,95656.48
2018-10-15T07:38:25.004Z,95661.15
2018-10-15T07:40:53.811Z,95660.94
2018-10-15T07:43:22.591Z,95661.45
2018-10-15T07:45:51.400Z,95649.83
2018-10-15T07:48:20.243Z,95655.73
2018-10-15T07:50:49.159Z,95650.28
2018-10-15T07:53:19.007Z,95648.98
2018-10-15T07:55:47.967Z,95656.73
2018-10-15T07:58:16.812Z,95653.59
2018-10-15T08:00:45.500Z,95653.79
2018-10-15T08:03:14.374Z,95655.92
2018-10-15T08:05:43.297Z,95645.80
2018-10-15T08:08:12.371Z,95648.94
2018-10-15T08:10:41.368Z,95637.81
2018-10-15T08:13:10.117Z,95648.06
2018-10-15T08:15:39.035Z,95647.95
2018-10-15T08:18:07.988Z,95644.02
2018-10-15T08:20:36.764Z,95643.50
2018-10-15T08:23:05.764Z,95641.45
2018-10-15T08:25:34.521Z,95641.87
2018-10-15T08:28:03.352Z,95646.10
2018-10-15T08:30:32.092Z,95649.55
2018-10-15T08:33:00.920Z,95651.89
2018-10-15T08:35:29.727Z,95649.86
2018-10-15T08:37:58.615Z,95651.05
2018-10-15T08:40:27.368Z,95646.59
2018-10-15T08:42:56.154Z,95653.60
2018-10-15T08:45:25.284Z,95643.63
2018-10-15T08:47:54.360Z,95646.47
2018-10-15T08:50:23.343Z,95637.23
2018-10-15T08:52:52.752Z,95636.59
2018-10-15T08:55:21.739Z,95630.86
2018-10-15T08:57:50.596Z,95630.83
2018-10-15T09:00:21.576Z,95635.03
2018-10-15T09:02:50.467Z,95630.52
2018-10-15T09:05:19.341Z,95628.10
2018-10-15T09:07:48.317Z,95621.99
2018-10-15T09:10:18.279Z,95617.02
2018-10-15T09:12:47.147Z,95614.41
2018-10-15T09:15:21.475Z,95616.55
2018-10-15T09:17:50.242Z,95606.32
2018-10-15T09:20:19.117Z,95611.77
2018-10-15T09:22:47.845Z,95602.64
2018-10-15T09:25:17.980Z,95598.79
2018-10-15T09:27:47.060Z,95600.36
2018-10-15T09:30:20.456Z,95599.10
2018-10-15T09:32:49.596Z,95592.30
2018-10-15T09:35:19.312Z,95584.38
2018-10-15T09:37:48.219Z,95582.53
2018-10-15T09:40:19.601Z,95580.20
2018-10-15T09:42:48.764Z,95570.07
2018-10-15T09:45:18.727Z,95576.99
2018-10-15T09:47:48.627Z,95557.98
2018-10-15T09:50:17.539Z,95567.42
2018-10-15T09:52:46.476Z,95567.77
2018-10-15T09:55:16.137Z,95570.94
2018-10-15T09:57:45.034Z,95561.23
2018-10-15T10:00:19.973Z,95555.03
2018-10-15T10:02:51.454Z,95553.78
2018-10-15T10:05:20.355Z,95559.52
2018-10-15T10:07:49.146Z,95556.63
2018-10-15T10:10:18.117Z,95550.98
2018-10-15T10:12:46.862Z,95553.39
2018-10-15T10:15:16.010Z,95546.30
2018-10-15T10:17:45.740Z,95538.02
2018-10-15T10:20:15.398Z,95533.16
2018-10-15T10:22:44.216Z,95534.16
2018-10-15T10:25:14.187Z,95531.73
2018-10-15T10:27:42.973Z,95528.64
2018-10-15T10:30:13.087Z,95523.02
2018-10-15T10:32:42.101Z,95520.26
2018-10-15T10:35:46.852Z,95518.70
2018-10-15T10:38:54.823Z,95508.89
2018-10-15T10:41:23.714Z,95507.98
2018-10-15T10:43:52.543Z,95508.78
2018-10-15T10:46:21.367Z,95504.52
2018-10-15T10:48:50.080Z,95506.95
2018-10-15T10:51:18.797Z,95497.59
2018-10-15T10:53:47.530Z,95498.56
2018-10-15T10:56:16.262Z,95502.67
2018-10-15T10:58:45.119Z,95492.16
2018-10-15T11:01:14.024Z,95492.74
2018-10-15T11:03:42.906Z,95485.66
2018-10-15T11:06:11.746Z,95485.77
2018-10-15T11:08:40.555Z,95483.59
2018-10-15T11:11:09.578Z,95491.63
2018-10-15T11:13:38.316Z,95477.23
2018-10-15T11:16:07.694Z,95478.03
2018-10-15T11:18:36.837Z,95476.70
2018-10-15T11:21:06.061Z,95467.28
2018-10-15T11:23:34.919Z,95470.08
2018-10-15T11:26:03.645Z,95472.45
2018-10-15T11:28:32.383Z,95475.86
2018-10-15T11:31:01.105Z,95475.59
2018-10-15T11:33:29.866Z,95467.16
2018-10-15T11:35:58.649Z,95473.05
2018-10-15T11:38:27.395Z,95466.08
2018-10-15T11:40:56.122Z,95467.93
2018-10-15T11:43:24.953Z,95461.37
2018-10-15T11:45:53.816Z,95458.42
2018-10-15T11:48:22.542Z,95457.69
2018-10-15T11:50:51.269Z,95452.08
2018-10-15T11:53:20.070Z,95456.98
2018-10-15T11:55:48.726Z,95456.47
2018-10-15T11:58:17.419Z,95444.55
2018-10-15T12:00:46.232Z,95445.02
2018-10-15T12:03:14.990Z,95442.70
2018-10-15T12:05:43.796Z,95436.09
2018-10-15T12:08:12.721Z,95436.75
2018-10-15T12:10:41.397Z,95433.45
2018-10-15T12:13:10.111Z,95433.75
2018-10-15T12:15:38.888Z,95440.41
2018-10-15T12:18:07.638Z,95431.59
2018-10-15T12:20:36.444Z,95429.98
2018-10-15T12:23:05.232Z,95428.89
2018-10-15T12:25:33.934Z,95428.94
2018-10-15T12:28:02.688Z,95426.84
2018-10-15T12:30:31.454Z,95428.72
2018-10-15T12:33:00.250Z,95421.88
2018-10-15T12:35:29.016Z,95418.75
2018-10-15T12:37:57.799Z,95419.43
2018-10-15T12:40:26.838Z,95420.20
2018-10-15T12:42:55.814Z,95412.73
2018-10-15T12:45:29.918Z,95415.96
2018-10-15T12:47:59.052Z,95411.45
2018-10-15T12:50:27.790Z,95404.65
2018-10-15T12:52:56.550Z,95412.16
2018-10-15T12:55:25.290Z,95412.31
2018-10-15T12:57:53.998Z,95408.84
2018-10-15T13:00:22.817Z,95403.76
2018-10-15T13:02:51.586Z,95404.23
2018-10-15T13:05:25.202Z,95407.33
2018-10-15T13:07:54.652Z,95409.98
2018-10-15T13:10:23.735Z,95408.33
2018-10-15T13:12:52.580Z,95401.95
2018-10-15T13:15:22.123Z,95406.52
2018-10-15T13:17:51.174Z,95403.05
2018-10-15T13:20:20.162Z,95405.99
2018-10-15T13:22:48.911Z,95402.30
2018-10-15T13:25:17.744Z,95403.39
2018-10-15T13:27:46.478Z,95405.99
2018-10-15T13:30:15.655Z,95415.56
2018-10-15T13:32:51.082Z,95417.88
2018-10-15T13:35:19.781Z,95413.77
2018-10-15T13:37:48.578Z,95415.58
2018-10-15T13:40:17.299Z,95408.45
2018-10-15T13:42:46.032Z,95403.66
2018-10-15T13:45:14.910Z,95398.90
2018-10-15T13:47:43.865Z,95400.70
2018-10-15T13:50:13.072Z,95403.59
2018-10-15T13:52:42.367Z,95404.34
2018-10-15T13:55:12.302Z,95405.34
2018-10-15T13:57:41.213Z,95402.63
2018-10-15T14:00:21.229Z,95400.49
2018-10-15T14:02:50.100Z,95410.66
2018-10-15T14:05:19.011Z,95410.36
2018-10-15T14:07:47.940Z,95410.08
2018-10-15T14:10:16.679Z,95407.65
2018-10-15T14:12:45.393Z,95409.78
2018-10-15T14:15:15.250Z,95407.94
2018-10-15T14:17:44.136Z,95403.09
2018-10-15T14:20:13.530Z,95416.67
2018-10-15T14:22:43.436Z,95412.87
2018-10-15T14:25:13.361Z,95423.20
2018-10-15T14:27:43.384Z,95414.20
2018-10-15T14:30:15.269Z,95416.75
2018-10-15T14:32:44.453Z,95415.20
2018-10-15T14:35:14.419Z,95417.73
2018-10-15T14:37:44.041Z,95421.22
2018-10-15T14:40:20.383Z,95419.08
2018-10-15T14:42:50.111Z,95419.06
2018-10-15T14:45:19.186Z,95417.16
2018-10-15T14:47:47.937Z,95422.20
2018-10-15T14:50:18.013Z,95425.09
2018-10-15T14:52:48.761Z,95426.27
2018-10-15T14:55:17.676Z,95423.19
2018-10-15T14:57:46.364Z,95421.05
2018-10-15T15:00:18.640Z,95419.33
2018-10-15T15:02:47.380Z,95424.02
2018-10-15T15:05:16.373Z,95426.25
2018-10-15T15:07:45.221Z,95427.47
2018-10-15T15:10:25.668Z,95430.34
2018-10-15T15:13:05.554Z,95434.89
2018-10-15T15:15:34.432Z,95437.66
2018-10-15T15:18:03.161Z,95442.09
2018-10-15T15:20:31.901Z,95443.38
2018-10-15T15:23:00.669Z,95438.93
2018-10-15T15:25:29.429Z,95442.02
2018-10-15T15:27:58.181Z,95438.64
2018-10-15T15:30:27.090Z,95442.35
2018-10-15T15:32:55.945Z,95442.83
2018-10-15T15:35:24.763Z,95441.64
2018-10-15T15:37:53.497Z,95446.02
2018-10-15T15:40:22.177Z,95449.11
2018-10-15T15:42:50.916Z,95446.33
2018-10-15T15:45:19.715Z,95451.99
2018-10-15T15:47:48.645Z,95450.98
2018-10-15T15:50:17.573Z,95459.92
2018-10-15T15:52:46.291Z,95459.17
2018-10-15T15:55:15.027Z,95459.25
2018-10-15T15:57:43.812Z,95459.85
2018-10-15T16:00:16.497Z,95459.34
2018-10-15T16:02:45.253Z,95469.89
2018-10-15T16:05:13.997Z,95475.23
2018-10-15T16:07:42.789Z,95481.41
2018-10-15T16:10:11.552Z,95484.95
2018-10-15T16:12:40.294Z,95483.75
2018-10-15T16:15:10.541Z,95487.70
2018-10-15T16:17:39.701Z,95494.47
2018-10-15T16:20:09.358Z,95498.56
2018-10-15T16:22:38.155Z,95497.00
2018-10-15T16:25:07.569Z,95503.73
2018-10-15T16:27:36.627Z,95508.21
2018-10-15T16:30:10.718Z,95512.42
2018-10-15T16:32:40.079Z,95513.86
2018-10-15T16:35:10.262Z,95520.08
2018-10-15T16:37:39.982Z,95523.48
2018-10-15T16:40:09.428Z,95522.42
2018-10-15T16:42:38.478Z,95525.22
2018-10-15T16:45:09.423Z,95529.30
2018-10-15T16:47:38.233Z,95535.85
2018-10-15T16:50:09.519Z,95542.06
2018-10-15T16:52:38.955Z,95536.48
2018-10-15T16:55:10.287Z,95541.97
2018-10-15T16:57:39.722Z,95543.80
2018-10-15T17:00:10.130Z,95549.34
2018-10-15T17:02:39.453Z,95549.39
2018-10-15T17:05:09.399Z,95555.28
2018-10-15T17:07:38.477Z,95554.08
2018-10-15T17:10:09.008Z,95556.55
2018-10-15T17:12:37.763Z,95563.03
2018-10-15T17:15:08.132Z,95560.90
2018-10-15T17:17:37.159Z,95559.92
2018-10-15T17:20:07.170Z,95556.78
2018-10-15T17:22:35.927Z,95558.54
2018-10-15T17:25:04.742Z,95558.95
2018-10-15T17:27:33.568Z,95562.72
2018-10-15T17:30:02.359Z,95563.16
2018-10-15T17:32:31.087Z,95561.94
2018-10-15T17:34:59.867Z,95564.10
2018-10-15T17:37:28.658Z,95568.98
2018-10-15T17:39:57.646Z,95571.72
2018-10-15T17:42:26.391Z,95572.56
2018-10-15T17:44:55.206Z,95568.30
2018-10-15T17:47:24.138Z,95571.65
2018-10-15T17:49:57.889Z,95574.90
2018-10-15T17:52:26.672Z,95576.75
2018-10-15T17:54:55.503Z,95582.23
2018-10-15T17:57:24.283Z,95589.55
2018-10-15T17:59:53.069Z,95589.14
2018-10-15T18:02:21.823Z,95587.95
2018-10-15T18:04:50.587Z,95590.28
2018-10-15T18:07:19.321Z,95596.88
2018-10-15T18:09:48.056Z,95595.58
2018-10-15T18:12:16.973Z,95593.44
2018-10-15T18:14:45.900Z,95593.88
2018-10-15T18:17:14.739Z,95597.41
2018-10-15T18:19:43.492Z,95594.87
2018-10-15T18:22:12.313Z,95594.67
2018-10-15T18:24:41.107Z,95594.36
2018-10-15T18:27:09.968Z,95594.99
2018-10-15T18:29:39.017Z,95601.38
2018-10-15T18:32:08.257Z,95599.16
2018-10-15T18:34:36.959Z,95600.88
2018-10-15T18:37:05.988Z,95595.81
2018-10-15T18:39:34.707Z,95594.55
2018-10-15T18:42:04.264Z,95593.04
2018-10-15T18:44:33.122Z,95595.37
2018-10-15T18:47:01.937Z,95593.74
2018-10-15T18:49:30.737Z,95590.48
2018-10-15T18:51:59.534Z,95594.64
2018-10-15T18:54:28.442Z,95593.02
2018-10-15T18:56:57.271Z,95594.14
2018-10-15T18:59:26.174Z,95589.58
2018-10-15T19:01:55.273Z,95596.47
2018-10-15T19:04:24.141Z,95591.59
2018-10-15T19:06:53.098Z,95594.95
2018-10-15T19:09:26.052Z,95593.86
2018-10-15T19:11:54.957Z,95603.09
2018-10-15T19:14:23.790Z,95604.30
2018-10-15T19:16:52.556Z,95607.94
2018-10-15T19:19:21.367Z,95618.48
2018-10-15T19:21:50.292Z,95611.78
2018-10-15T19:24:19.074Z,95616.55
2018-10-15T19:26:47.845Z,95615.94
2018-10-15T19:29:16.598Z,95616.33
2018-10-15T19:31:45.380Z,95626.17
2018-10-15T19:34:14.174Z,95620.90
2018-10-15T19:36:43.012Z,95624.63
2018-10-15T19:39:13.337Z,95625.86
2018-10-15T19:41:42.210Z,95627.38
2018-10-15T19:44:11.796Z,95630.59
2018-10-15T19:46:40.617Z,95630.31
2018-10-15T19:49:09.665Z,95620.55
2018-10-15T19:51:38.626Z,95621.59
2018-10-15T19:54:07.385Z,95624.11
2018-10-15T19:56:36.696Z,95622.09
2018-10-15T19:59:06.744Z,95623.30
2018-10-15T20:01:35.722Z,95624.00
2018-10-15T20:04:05.319Z,95621.88
2018-10-15T20:06:34.215Z,95628.27
2018-10-15T20:09:03.052Z,95627.38
2018-10-15T20:11:31.881Z,95626.25
2018-10-15T20:14:00.592Z,95627.26
2018-10-15T20:16:30.217Z,95633.03
2018-10-15T20:18:58.949Z,95633.10
2018-10-15T20:21:27.721Z,95632.91
2018-10-15T20:23:56.488Z,95633.83
2018-10-15T20:26:25.290Z,95638.29
2018-10-15T20:28:54.037Z,95633.10
2018-10-15T20:31:22.973Z,95636.91
2018-10-15T20:33:51.716Z,95635.79
2018-10-15T20:36:20.549Z,95633.08
2018-10-15T20:38:49.238Z,95626.26
2018-10-15T20:41:18.003Z,95624.55
2018-10-15T20:43:46.713Z,95621.72
2018-10-15T20:46:15.560Z,95624.16
2018-10-15T20:48:44.349Z,95629.74
2018-10-15T20:51:13.602Z,95632.58
2018-10-15T20:53:42.409Z,95630.44
2018-10-15T20:56:11.191Z,95623.53
2018-10-15T20:58:39.917Z,95621.09
2018-10-15T21:01:08.629Z,95633.23
2018-10-15T21:03:37.416Z,95628.14
2018-10-15T21:06:06.183Z,95617.91
2018-10-15T21:08:34.975Z,95634.03
2018-10-15T21:11:03.729Z,95625.38
2018-10-15T21:13:32.536Z,95631.25
2018-10-15T21:16:01.293Z,95625.74
2018-10-15T21:18:30.109Z,95630.18
2018-10-15T21:20:59.024Z,95629.17
2018-10-15T21:23:27.818Z,95629.67
2018-10-15T21:25:56.752Z,95631.30
2018-10-15T21:28:25.489Z,95628.98
2018-10-15T21:30:54.226Z,95629.77
2018-10-15T21:33:22.974Z,95631.89
2018-10-15T21:35:51.717Z,95628.45
2018-10-15T21:38:20.486Z,95629.69
2018-10-15T21:40:49.223Z,95623.73
2018-10-15T21:43:18.012Z,95624.35
2018-10-15T21:45:46.838Z,95623.74
2018-10-15T21:48:15.752Z,95620.80
2018-10-15T21:50:44.492Z,95615.64
2018-10-15T21:53:13.224Z,95612.39
2018-10-15T21:55:42.041Z,95607.36
2018-10-15T21:58:10.959Z,95609.70
2018-10-15T22:00:43.906Z,95601.40
2018-10-15T22:03:12.678Z,95605.86
2018-10-15T22:05:41.455Z,95597.45
2018-10-15T22:08:10.753Z,95602.09
2018-10-15T22:10:39.522Z,95608.69
2018-10-15T22:13:08.298Z,95604.15
2018-10-15T22:15:37.131Z,95603.03
2018-10-15T22:18:06.319Z,95610.32
2018-10-15T22:20:35.154Z,95609.50
2018-10-15T22:23:04.238Z,95613.46
2018-10-15T22:25:32.939Z,95610.32
2018-10-15T22:28:01.723Z,95613.95
2018-10-15T22:30:30.551Z,95616.20
2018-10-15T22:32:59.350Z,95615.39
2018-10-15T22:35:28.103Z,95616.20
2018-10-15T22:37:56.874Z,95614.58
2018-10-15T22:40:25.612Z,95625.51
2018-10-15T22:42:54.385Z,95616.71
2018-10-15T22:45:23.285Z,95623.80
2018-10-15T22:47:52.042Z,95625.51
2018-10-15T22:50:21.182Z,95619.92
2018-10-15T22:52:49.903Z,95626.63
2018-10-15T22:55:18.632Z,95617.78
2018-10-15T22:57:47.411Z,95619.61
2018-10-15T23:00:17.406Z,95623.16
2018-10-15T23:02:46.633Z,95628.75
2018-10-15T23:05:15.706Z,95623.47
2018-10-15T23:07:45.149Z,95621.41
2018-10-15T23:10:19.061Z,95617.77
2018-10-15T23:12:48.352Z,95618.98
2018-10-15T23:15:17.359Z,95628.30
2018-10-15T23:17:46.158Z,95627.69
2018-10-15T23:20:14.920Z,95626.19
2018-10-15T23:22:43.630Z,95622.23
2018-10-15T23:25:12.358Z,95618.78
2018-10-15T23:27:41.153Z,95614.52
2018-10-15T23:30:10.843Z,95613.01
2018-10-15T23:32:40.707Z,95615.52
2018-10-15T23:35:09.998Z,95613.81
2018-10-15T23:37:40.095Z,95619.27
2018-10-15T23:40:10.795Z,95617.02
2018-10-15T23:42:39.871Z,95618.72
2018-10-15T23:45:10.347Z,95613.94
2018-10-15T23:47:39.732Z,95615.31
2018-10-15T23:50:11.947Z,95609.59
2018-10-15T23:52:40.730Z,95613.33
2018-10-15T23:55:10.761Z,95616.91
2018-10-15T23:57:40.072Z,95611.52
